createdAt,value
2018-12-26T00:01:00.831Z,-4.80
2018-12-26T00:03:29.270Z,-4.80
2018-12-26T00:05:57.732Z,-4.80
2018-12-26T00:08:26.168Z,-4.80
2018-12-26T00:10:54.621Z,-4.90
2018-12-26T00:13:23.093Z,-4.90
2018-12-26T00:15:51.503Z,-4.90
2018-12-26T00:18:20.099Z,-4.90
2018-12-26T00:20:48.694Z,-4.90
2018-12-26T00:23:17.143Z,-4.90
2018-12-26T00:25:45.586Z,-4.90
2018-12-26T00:28:14.018Z,-4.90
2018-12-26T00:30:42.473Z,-4.90
2018-12-26T00:33:10.889Z,-4.90
2018-12-26T00:35:39.352Z,-5.00
2018-12-26T00:38:07.783Z,-5.10
2018-12-26T00:40:36.235Z,-5.00
2018-12-26T00:43:04.663Z,-5.00
2018-12-26T00:45:33.178Z,-5.10
2018-12-26T00:48:01.675Z,-5.10
2018-12-26T00:50:30.146Z,-5.00
2018-12-26T00:52:58.577Z,-5.00
2018-12-26T00:55:27.054Z,-5.00
2018-12-26T00:57:55.516Z,-5.00
2018-12-26T01:00:23.986Z,-5.00
2018-12-26T01:02:52.414Z,-5.00
2018-12-26T01:05:20.886Z,-5.00
2018-12-26T01:07:49.293Z,-5.00
2018-12-26T01:10:17.894Z,-5.00
2018-12-26T01:12:46.339Z,-5.00
2018-12-26T01:15:14.760Z,-5.00
2018-12-26T01:17:43.213Z,-5.00
2018-12-26T01:20:11.638Z,-5.00
2018-12-26T01:22:40.082Z,-5.00
2018-12-26T01:25:08.517Z,-4.90
2018-12-26T01:27:36.970Z,-5.00
2018-12-26T01:30:05.750Z,-5.00
2018-12-26T01:32:34.201Z,-5.00
2018-12-26T01:35:02.614Z,-5.00
2018-12-26T01:37:31.050Z,-5.00
2018-12-26T01:39:59.543Z,-5.00
2018-12-26T01:42:28.012Z,-5.00
2018-12-26T01:44:56.418Z,-5.00
2018-12-26T01:47:24.869Z,-5.00
2018-12-26T01:49:53.369Z,-5.00
2018-12-26T01:52:21.869Z,-5.10
2018-12-26T01:54:50.332Z,-5.10
2018-12-26T01:57:18.760Z,-5.10
2018-12-26T01:59:48.891Z,-5.20
2018-12-26T02:02:17.418Z,-5.20
2018-12-26T02:04:45.869Z,-5.20
2018-12-26T02:07:14.294Z,-5.30
2018-12-26T02:09:42.737Z,-5.30
2018-12-26T02:12:11.165Z,-5.30
2018-12-26T02:14:39.602Z,-5.30
2018-12-26T02:17:08.040Z,-5.30
2018-12-26T02:19:36.475Z,-5.40
2018-12-26T02:22:05.038Z,-5.40
2018-12-26T02:24:33.559Z,-5.40
2018-12-26T02:27:01.990Z,-5.40
2018-12-26T02:29:30.441Z,-5.40
2018-12-26T02:31:58.856Z,-5.50
2018-12-26T02:34:27.342Z,-5.50
2018-12-26T02:36:55.783Z,-5.50
2018-12-26T02:39:24.238Z,-5.50
2018-12-26T02:41:52.660Z,-5.60
2018-12-26T02:44:21.122Z,-5.60
2018-12-26T02:46:49.539Z,-5.60
2018-12-26T02:49:17.969Z,-5.60
2018-12-26T02:51:46.434Z,-5.60
2018-12-26T02:54:14.863Z,-5.60
2018-12-26T02:56:47.730Z,-5.50
2018-12-26T02:59:13.763Z,-5.50
2018-12-26T03:01:42.289Z,-5.50
2018-12-26T03:04:10.723Z,-5.40
2018-12-26T03:06:39.247Z,-5.30
2018-12-26T03:09:07.912Z,-5.30
2018-12-26T03:11:37.893Z,-5.30
2018-12-26T03:14:06.382Z,-5.20
2018-12-26T03:16:34.877Z,-5.10
2018-12-26T03:19:03.326Z,-5.10
2018-12-26T03:21:31.937Z,-5.00
2018-12-26T03:24:00.365Z,-4.90
2018-12-26T03:26:28.800Z,-4.80
2018-12-26T03:28:57.249Z,-4.80
2018-12-26T03:31:25.678Z,-4.70
2018-12-26T03:33:54.115Z,-4.70
2018-12-26T03:36:22.612Z,-4.60
2018-12-26T03:38:51.049Z,-4.60
2018-12-26T03:41:19.719Z,-4.50
2018-12-26T03:43:48.409Z,-4.50
2018-12-26T03:46:16.830Z,-4.40
2018-12-26T03:48:45.270Z,-4.30
2018-12-26T03:51:13.701Z,-4.30
2018-12-26T03:53:42.222Z,-4.40
2018-12-26T03:56:10.655Z,-4.40
2018-12-26T03:58:39.104Z,-4.40
2018-12-26T04:01:07.669Z,-4.30
2018-12-26T04:03:36.114Z,-4.20
2018-12-26T04:06:04.617Z,-4.20
2018-12-26T04:08:33.125Z,-4.20
2018-12-26T04:11:01.898Z,-4.20
2018-12-26T04:13:30.421Z,-4.20
2018-12-26T04:15:59.090Z,-4.20
2018-12-26T04:18:27.607Z,-4.20
2018-12-26T04:20:56.296Z,-4.10
2018-12-26T04:23:24.822Z,-4.10
2018-12-26T04:25:53.291Z,-4.20
2018-12-26T04:28:21.706Z,-4.20
2018-12-26T04:30:50.164Z,-4.20
2018-12-26T04:33:18.593Z,-4.20
2018-12-26T04:35:47.027Z,-4.10
2018-12-26T04:38:15.477Z,-4.20
2018-12-26T04:40:43.906Z,-4.20
2018-12-26T04:43:15.004Z,-4.10
2018-12-26T04:45:43.450Z,-4.10
2018-12-26T04:48:11.866Z,-4.10
2018-12-26T04:50:40.328Z,-4.10
2018-12-26T04:53:08.743Z,-4.10
2018-12-26T04:55:37.211Z,-4.10
2018-12-26T04:58:05.640Z,-4.10
2018-12-26T05:00:34.150Z,-4.20
2018-12-26T05:03:02.585Z,-4.10
2018-12-26T05:05:31.159Z,-4.20
2018-12-26T05:07:59.583Z,-4.20
2018-12-26T05:10:29.570Z,-4.10
2018-12-26T05:12:58.073Z,-4.20
2018-12-26T05:15:26.513Z,-4.20
2018-12-26T05:17:55.108Z,-4.30
2018-12-26T05:20:23.534Z,-4.20
2018-12-26T05:22:53.622Z,-4.30
2018-12-26T05:25:22.050Z,-4.30
2018-12-26T05:27:50.515Z,-4.30
2018-12-26T05:30:18.936Z,-4.30
2018-12-26T05:32:47.381Z,-4.40
2018-12-26T05:35:15.815Z,-4.30
2018-12-26T05:37:44.585Z,-4.20
2018-12-26T05:40:13.091Z,-4.20
2018-12-26T05:42:41.592Z,-4.20
2018-12-26T05:45:10.013Z,-4.20
2018-12-26T05:47:38.465Z,-4.20
2018-12-26T05:50:06.898Z,-4.20
2018-12-26T05:52:35.333Z,-4.30
2018-12-26T05:55:04.727Z,-4.30
2018-12-26T05:57:33.183Z,-4.40
2018-12-26T06:00:01.610Z,-4.40
2018-12-26T06:02:30.023Z,-4.40
2018-12-26T06:04:58.462Z,-4.40
2018-12-26T06:07:26.907Z,-4.50
2018-12-26T06:09:55.338Z,-4.50
2018-12-26T06:12:23.758Z,-4.50
2018-12-26T06:14:52.197Z,-4.60
2018-12-26T06:17:20.630Z,-4.60
2018-12-26T06:19:49.078Z,-4.60
2018-12-26T06:22:17.518Z,-4.60
2018-12-26T06:24:45.989Z,-4.50
2018-12-26T06:27:14.411Z,-4.50
2018-12-26T06:29:42.865Z,-4.50
2018-12-26T06:32:11.291Z,-4.50
2018-12-26T06:34:39.742Z,-4.50
2018-12-26T06:37:08.170Z,-4.60
2018-12-26T06:39:36.619Z,-4.70
2018-12-26T06:42:05.042Z,-4.80
2018-12-26T06:44:33.495Z,-4.70
2018-12-26T06:47:01.953Z,-4.80
2018-12-26T06:49:30.396Z,-4.80
2018-12-26T06:51:58.887Z,-4.90
2018-12-26T06:54:27.354Z,-4.80
2018-12-26T06:56:55.858Z,-4.90
2018-12-26T06:59:24.295Z,-5.00
2018-12-26T07:01:52.795Z,-5.00
2018-12-26T07:04:21.235Z,-5.00
2018-12-26T07:06:49.684Z,-5.00
2018-12-26T07:09:18.104Z,-5.10
2018-12-26T07:11:46.558Z,-5.10
2018-12-26T07:14:14.981Z,-5.10
2018-12-26T07:16:43.432Z,-5.10
2018-12-26T07:19:11.931Z,-5.20
2018-12-26T07:21:40.410Z,-5.20
2018-12-26T07:24:08.837Z,-5.20
2018-12-26T07:26:38.856Z,-5.20
2018-12-26T07:29:07.264Z,-5.20
2018-12-26T07:31:35.694Z,-5.20
2018-12-26T07:34:04.133Z,-5.10
2018-12-26T07:36:32.593Z,-5.10
2018-12-26T07:39:01.070Z,-5.10
2018-12-26T07:41:29.546Z,-5.10
2018-12-26T07:43:57.983Z,-5.00
2018-12-26T07:46:26.400Z,-5.00
2018-12-26T07:48:54.859Z,-5.00
2018-12-26T07:51:23.314Z,-5.00
2018-12-26T07:53:51.771Z,-4.90
2018-12-26T07:56:20.206Z,-5.00
2018-12-26T07:58:48.646Z,-5.00
2018-12-26T08:01:17.084Z,-5.00
2018-12-26T08:03:45.549Z,-4.90
2018-12-26T08:06:13.969Z,-4.90
2018-12-26T08:08:42.430Z,-5.00
2018-12-26T08:11:10.903Z,-5.00
2018-12-26T08:13:39.369Z,-4.90
2018-12-26T08:16:09.847Z,-5.00
2018-12-26T08:18:37.970Z,-5.00
2018-12-26T08:21:06.405Z,-5.10
2018-12-26T08:23:34.872Z,-5.20
2018-12-26T08:26:03.292Z,-5.40
2018-12-26T08:28:31.747Z,-5.40
2018-12-26T08:31:00.188Z,-5.40
2018-12-26T08:33:28.643Z,-5.40
2018-12-26T08:35:57.073Z,-5.30
2018-12-26T08:38:25.539Z,-5.30
2018-12-26T08:40:54.086Z,-5.50
2018-12-26T08:43:24.179Z,-5.30
2018-12-26T08:46:04.004Z,-5.20
2018-12-26T08:48:34.056Z,-5.10
2018-12-26T08:51:06.975Z,-5.20
2018-12-26T08:53:35.378Z,-5.20
2018-12-26T08:56:05.753Z,-5.10
2018-12-26T08:58:35.846Z,-5.00
2018-12-26T09:01:07.105Z,-4.90
2018-12-26T09:03:40.130Z,-4.90
2018-12-26T09:06:07.320Z,-4.90
2018-12-26T09:08:37.457Z,-4.80
2018-12-26T09:11:19.073Z,-4.80
2018-12-26T09:13:53.068Z,-4.60
2018-12-26T09:16:24.275Z,-4.60
2018-12-26T09:18:55.052Z,-4.50
2018-12-26T09:21:26.575Z,-4.60
2018-12-26T09:23:58.537Z,-4.60
2018-12-26T09:26:31.265Z,-4.40
2018-12-26T09:29:02.770Z,-4.40
2018-12-26T09:31:36.011Z,-4.30
2018-12-26T09:34:06.002Z,-4.20
2018-12-26T09:36:34.475Z,-4.10
2018-12-26T09:39:04.551Z,-4.00
2018-12-26T09:41:35.947Z,-4.00
2018-12-26T09:44:23.339Z,-3.90
2018-12-26T09:46:55.378Z,-3.90
2018-12-26T09:49:25.080Z,-3.80
2018-12-26T09:52:03.902Z,-3.70
2018-12-26T09:54:42.655Z,-3.70
2018-12-26T09:57:21.675Z,-3.60
2018-12-26T09:59:57.996Z,-3.50
2018-12-26T10:02:26.442Z,-3.40
2018-12-26T10:04:54.926Z,-3.30
2018-12-26T10:07:23.390Z,-3.20
2018-12-26T10:09:51.860Z,-3.10
2018-12-26T10:12:20.273Z,-2.90
2018-12-26T10:14:48.723Z,-2.80
2018-12-26T10:17:17.161Z,-2.60
2018-12-26T10:19:45.603Z,-2.30
2018-12-26T10:22:14.031Z,-2.10
2018-12-26T10:24:42.487Z,-2.00
2018-12-26T10:27:11.038Z,-2.00
2018-12-26T10:29:39.491Z,-2.00
2018-12-26T10:32:07.905Z,-1.60
2018-12-26T10:34:36.363Z,-1.50
2018-12-26T10:37:04.785Z,-1.30
2018-12-26T10:39:33.243Z,-1.00
2018-12-26T10:42:01.692Z,-1.30
2018-12-26T10:44:30.130Z,-0.90
2018-12-26T10:46:58.568Z,-0.60
2018-12-26T10:49:27.022Z,-0.50
2018-12-26T10:51:55.454Z,-0.50
2018-12-26T10:54:23.902Z,-0.50
2018-12-26T10:56:52.330Z,-0.20
2018-12-26T10:59:20.832Z,0.00
2018-12-26T11:01:49.262Z,0.20
2018-12-26T11:04:17.729Z,0.40
2018-12-26T11:06:46.199Z,0.70
2018-12-26T11:09:14.632Z,0.90
2018-12-26T11:11:44.622Z,0.90
2018-12-26T11:14:13.052Z,1.00
2018-12-26T11:16:41.578Z,1.10
2018-12-26T11:19:10.378Z,1.20
2018-12-26T11:21:38.892Z,1.40
2018-12-26T11:24:07.323Z,1.50
2018-12-26T11:26:35.848Z,1.60
2018-12-26T11:29:04.270Z,1.80
2018-12-26T11:31:32.726Z,1.90
2018-12-26T11:34:01.153Z,1.70
2018-12-26T11:36:29.611Z,1.80
2018-12-26T11:38:58.233Z,2.00
2018-12-26T11:41:26.736Z,2.10
2018-12-26T11:43:55.237Z,2.00
2018-12-26T11:46:23.762Z,1.80
2018-12-26T11:48:52.178Z,2.00
2018-12-26T11:51:20.600Z,2.00
2018-12-26T11:53:49.048Z,2.30
2018-12-26T11:56:17.471Z,2.50
2018-12-26T11:58:45.943Z,2.50
2018-12-26T12:01:14.512Z,2.50
2018-12-26T12:03:43.039Z,2.60
2018-12-26T12:06:11.458Z,2.60
2018-12-26T12:08:39.902Z,2.60
2018-12-26T12:11:08.338Z,2.50
2018-12-26T12:13:36.949Z,2.50
2018-12-26T12:16:05.460Z,2.70
2018-12-26T12:18:33.991Z,3.00
2018-12-26T12:21:02.487Z,3.10
2018-12-26T12:23:30.931Z,3.00
2018-12-26T12:25:59.370Z,3.10
2018-12-26T12:28:27.823Z,3.20
2018-12-26T12:30:56.301Z,3.40
2018-12-26T12:33:24.846Z,3.50
2018-12-26T12:35:53.447Z,3.80
2018-12-26T12:38:22.074Z,4.00
2018-12-26T12:40:50.522Z,4.00
2018-12-26T12:43:19.055Z,4.30
2018-12-26T12:45:47.835Z,4.20
2018-12-26T12:48:16.362Z,4.50
2018-12-26T12:50:46.346Z,4.60
2018-12-26T12:53:14.799Z,4.60
2018-12-26T12:55:43.233Z,4.70
2018-12-26T12:58:11.866Z,5.00
2018-12-26T13:00:40.314Z,4.60
2018-12-26T13:03:08.742Z,4.80
2018-12-26T13:05:37.246Z,5.10
2018-12-26T13:08:05.674Z,5.10
2018-12-26T13:10:34.190Z,5.00
2018-12-26T13:13:04.173Z,4.90
2018-12-26T13:15:32.642Z,4.90
2018-12-26T13:18:01.069Z,4.90
2018-12-26T13:20:29.523Z,4.70
2018-12-26T13:22:57.963Z,4.90
2018-12-26T13:25:26.402Z,5.00
2018-12-26T13:27:54.842Z,5.00
2018-12-26T13:30:23.467Z,5.00
2018-12-26T13:32:51.905Z,4.90
2018-12-26T13:35:20.351Z,4.80
2018-12-26T13:37:48.789Z,4.90
2018-12-26T13:40:17.242Z,4.80
2018-12-26T13:42:45.679Z,4.50
2018-12-26T13:45:14.125Z,4.40
2018-12-26T13:47:42.589Z,4.10
2018-12-26T13:50:11.089Z,3.80
2018-12-26T13:52:39.559Z,3.80
2018-12-26T13:55:08.038Z,3.80
2018-12-26T13:57:36.493Z,3.60
2018-12-26T14:00:08.167Z,3.40
2018-12-26T14:02:36.614Z,3.10
2018-12-26T14:05:06.180Z,3.00
2018-12-26T14:07:34.633Z,2.80
2018-12-26T14:10:03.347Z,3.00
2018-12-26T14:12:31.833Z,2.80
2018-12-26T14:15:01.971Z,3.10
2018-12-26T14:17:30.411Z,2.90
2018-12-26T14:19:58.874Z,2.20
2018-12-26T14:22:27.326Z,1.70
2018-12-26T14:24:55.778Z,1.40
2018-12-26T14:27:29.406Z,1.20
2018-12-26T14:29:54.521Z,1.10
2018-12-26T14:32:23.055Z,1.10
2018-12-26T14:34:51.500Z,1.10
2018-12-26T14:37:19.931Z,1.00
2018-12-26T14:39:48.379Z,0.80
2018-12-26T14:42:16.797Z,0.60
2018-12-26T14:44:45.249Z,0.60
2018-12-26T14:47:13.705Z,0.50
2018-12-26T14:49:42.148Z,0.50
2018-12-26T14:52:10.586Z,0.40
2018-12-26T14:54:39.053Z,0.40
2018-12-26T14:57:07.467Z,0.40
2018-12-26T14:59:36.227Z,0.20
2018-12-26T15:02:04.637Z,0.10
2018-12-26T15:04:33.074Z,0.10
2018-12-26T15:07:01.514Z,-0.10
2018-12-26T15:09:29.983Z,-0.10
2018-12-26T15:11:58.426Z,-0.20
2018-12-26T15:14:26.876Z,-0.20
2018-12-26T15:16:55.306Z,-0.30
2018-12-26T15:19:23.791Z,-0.30
2018-12-26T15:21:52.225Z,-0.50
2018-12-26T15:24:20.701Z,-0.60
2018-12-26T15:26:49.149Z,-0.70
2018-12-26T15:29:17.603Z,-0.90
2018-12-26T15:31:46.069Z,-0.90
2018-12-26T15:34:14.478Z,-1.00
2018-12-26T15:36:42.931Z,-1.10
2018-12-26T15:39:11.367Z,-1.10
2018-12-26T15:41:39.824Z,-1.00
2018-12-26T15:44:08.253Z,-1.10
2018-12-26T15:46:36.706Z,-1.10
2018-12-26T15:49:05.139Z,-1.20
2018-12-26T15:51:33.592Z,-1.20
2018-12-26T15:54:02.047Z,-1.10
2018-12-26T15:56:30.461Z,-1.10
2018-12-26T15:58:58.951Z,-1.20
2018-12-26T16:01:27.410Z,-1.20
2018-12-26T16:03:55.855Z,-1.40
2018-12-26T16:06:24.321Z,-1.50
2018-12-26T16:08:52.766Z,-1.50
2018-12-26T16:11:21.392Z,-1.50
2018-12-26T16:13:49.831Z,-1.50
2018-12-26T16:16:18.332Z,-1.50
2018-12-26T16:18:46.806Z,-1.40
2018-12-26T16:21:15.226Z,-1.40
2018-12-26T16:23:43.704Z,-1.50
2018-12-26T16:26:12.146Z,-1.60
2018-12-26T16:28:40.587Z,-1.60
2018-12-26T16:31:09.014Z,-1.60
2018-12-26T16:33:37.464Z,-1.50
2018-12-26T16:36:05.895Z,-1.50
2018-12-26T16:38:34.370Z,-1.60
2018-12-26T16:41:02.798Z,-1.60
2018-12-26T16:43:31.251Z,-1.80
2018-12-26T16:45:59.691Z,-2.00
2018-12-26T16:48:28.167Z,-1.90
2018-12-26T16:50:56.613Z,-1.80
2018-12-26T16:53:25.110Z,-1.90
2018-12-26T16:55:53.576Z,-1.80
2018-12-26T16:58:22.098Z,-1.90
2018-12-26T17:00:55.018Z,-2.00
2018-12-26T17:03:20.778Z,-2.00
2018-12-26T17:05:49.243Z,-1.90
2018-12-26T17:08:17.694Z,-1.90
2018-12-26T17:10:46.154Z,-1.90
2018-12-26T17:13:14.591Z,-1.80
2018-12-26T17:15:43.053Z,-1.80
2018-12-26T17:18:11.552Z,-1.90
2018-12-26T17:20:39.998Z,-2.00
2018-12-26T17:23:08.422Z,-2.10
2018-12-26T17:25:36.883Z,-2.10
2018-12-26T17:28:05.373Z,-2.10
2018-12-26T17:30:33.828Z,-2.10
2018-12-26T17:33:02.261Z,-2.20
2018-12-26T17:35:30.709Z,-2.10
2018-12-26T17:37:59.139Z,-2.10
2018-12-26T17:40:27.566Z,-2.00
2018-12-26T17:42:56.044Z,-2.10
2018-12-26T17:45:24.575Z,-2.10
2018-12-26T17:47:53.083Z,-2.00
2018-12-26T17:50:42.925Z,-2.00
2018-12-26T17:53:14.916Z,-2.00
2018-12-26T17:56:01.390Z,-1.90
2018-12-26T17:58:32.998Z,-2.00
2018-12-26T18:01:12.680Z,-2.10
2018-12-26T18:03:34.683Z,-2.10
2018-12-26T18:06:03.138Z,-2.00
2018-12-26T18:08:31.564Z,-2.10
2018-12-26T18:11:00.012Z,-2.30
2018-12-26T18:13:28.462Z,-2.30
2018-12-26T18:15:58.457Z,-2.30
2018-12-26T18:18:26.916Z,-2.30
2018-12-26T18:20:55.359Z,-2.40
2018-12-26T18:23:23.802Z,-2.30
2018-12-26T18:25:52.299Z,-2.40
2018-12-26T18:28:20.838Z,-2.40
2018-12-26T18:30:49.277Z,-2.30
2018-12-26T18:33:17.737Z,-2.30
2018-12-26T18:35:46.181Z,-2.30
2018-12-26T18:38:14.706Z,-2.30
2018-12-26T18:40:43.135Z,-2.30
2018-12-26T18:43:11.594Z,-2.40
2018-12-26T18:45:40.016Z,-2.40
2018-12-26T18:48:08.581Z,-2.30
2018-12-26T18:50:37.060Z,-2.40
2018-12-26T18:53:05.594Z,-2.40
2018-12-26T18:55:34.111Z,-2.60
2018-12-26T18:58:02.586Z,-2.60
2018-12-26T19:00:31.014Z,-2.60
2018-12-26T19:02:59.442Z,-2.60
2018-12-26T19:05:27.927Z,-2.60
2018-12-26T19:07:56.376Z,-2.50
2018-12-26T19:10:24.858Z,-2.50
2018-12-26T19:12:53.270Z,-2.40
2018-12-26T19:15:21.731Z,-2.50
2018-12-26T19:17:50.156Z,-2.50
2018-12-26T19:20:18.606Z,-2.40
2018-12-26T19:22:47.063Z,-2.40
2018-12-26T19:25:15.502Z,-2.50
2018-12-26T19:27:43.929Z,-2.40
2018-12-26T19:30:12.458Z,-2.40
2018-12-26T19:32:40.929Z,-2.40
2018-12-26T19:35:12.852Z,-2.50
2018-12-26T19:37:41.281Z,-2.40
2018-12-26T19:40:09.780Z,-2.50
2018-12-26T19:42:38.271Z,-2.50
2018-12-26T19:45:07.926Z,-2.50
2018-12-26T19:47:36.397Z,-2.50
2018-12-26T19:50:07.563Z,-2.60
2018-12-26T19:52:36.029Z,-2.60
2018-12-26T19:55:06.492Z,-2.60
2018-12-26T19:57:34.943Z,-2.60
2018-12-26T20:00:03.452Z,-2.60
2018-12-26T20:02:31.902Z,-2.60
2018-12-26T20:05:00.334Z,-2.60
2018-12-26T20:07:28.823Z,-2.60
2018-12-26T20:09:57.319Z,-2.60
2018-12-26T20:12:25.749Z,-2.70
2018-12-26T20:14:54.215Z,-2.70
2018-12-26T20:17:22.686Z,-2.60
2018-12-26T20:19:51.130Z,-2.60
2018-12-26T20:22:19.596Z,-2.70
2018-12-26T20:24:48.015Z,-2.70
2018-12-26T20:27:16.459Z,-2.70
2018-12-26T20:29:44.914Z,-2.60
2018-12-26T20:32:13.346Z,-2.60
2018-12-26T20:34:41.802Z,-2.70
2018-12-26T20:37:10.331Z,-2.80
2018-12-26T20:39:38.792Z,-2.70
2018-12-26T20:42:07.207Z,-2.70
2018-12-26T20:44:35.745Z,-2.70
2018-12-26T20:47:04.253Z,-2.90
2018-12-26T20:49:32.730Z,-2.90
2018-12-26T20:52:01.147Z,-2.80
2018-12-26T20:54:29.602Z,-2.90
2018-12-26T20:56:58.035Z,-2.70
2018-12-26T20:59:26.477Z,-2.80
2018-12-26T21:01:54.935Z,-2.70
2018-12-26T21:04:23.428Z,-2.70
2018-12-26T21:06:51.923Z,-2.80
2018-12-26T21:09:20.374Z,-2.70
2018-12-26T21:11:49.025Z,-2.80
2018-12-26T21:14:17.458Z,-2.70
2018-12-26T21:16:54.731Z,-2.80
2018-12-26T21:19:17.607Z,-2.70
2018-12-26T21:21:46.070Z,-2.80
2018-12-26T21:24:14.494Z,-2.90
2018-12-26T21:26:42.968Z,-3.00
2018-12-26T21:29:11.395Z,-2.90
2018-12-26T21:31:39.925Z,-2.90
2018-12-26T21:34:08.526Z,-2.90
2018-12-26T21:36:37.059Z,-2.90
2018-12-26T21:39:07.055Z,-2.90
2018-12-26T21:41:35.500Z,-2.90
2018-12-26T21:44:04.023Z,-2.90
2018-12-26T21:46:32.485Z,-2.90
2018-12-26T21:49:00.916Z,-3.00
2018-12-26T21:51:29.386Z,-3.10
2018-12-26T21:53:57.795Z,-3.30
2018-12-26T21:56:26.220Z,-3.40
2018-12-26T21:58:54.684Z,-3.30
2018-12-26T22:01:23.227Z,-3.20
2018-12-26T22:03:51.686Z,-3.20
2018-12-26T22:06:20.143Z,-3.10
2018-12-26T22:08:48.599Z,-3.00
2018-12-26T22:11:17.034Z,-3.10
2018-12-26T22:13:45.487Z,-3.20
2018-12-26T22:16:13.987Z,-3.20
2018-12-26T22:18:42.479Z,-3.30
2018-12-26T22:21:10.904Z,-3.40
2018-12-26T22:23:39.364Z,-3.40
2018-12-26T22:26:07.805Z,-3.40
2018-12-26T22:28:36.267Z,-3.30
2018-12-26T22:31:04.684Z,-3.30
2018-12-26T22:33:33.160Z,-3.40
2018-12-26T22:36:01.600Z,-3.40
2018-12-26T22:38:30.025Z,-3.40
2018-12-26T22:40:58.501Z,-3.30
2018-12-26T22:43:26.931Z,-3.30
2018-12-26T22:45:55.415Z,-3.30
2018-12-26T22:48:23.831Z,-3.40
2018-12-26T22:50:52.283Z,-3.40
2018-12-26T22:53:20.712Z,-3.50
2018-12-26T22:55:49.163Z,-3.50
2018-12-26T22:58:17.594Z,-3.40
2018-12-26T23:00:46.270Z,-3.40
2018-12-26T23:03:14.783Z,-3.40
2018-12-26T23:05:43.227Z,-3.40
2018-12-26T23:08:11.728Z,-3.30
2018-12-26T23:10:41.743Z,-3.40
2018-12-26T23:13:10.179Z,-3.40
2018-12-26T23:15:38.608Z,-3.40
2018-12-26T23:18:07.067Z,-3.40
2018-12-26T23:20:35.557Z,-3.50
2018-12-26T23:23:04.084Z,-3.60
2018-12-26T23:25:32.549Z,-3.60
2018-12-26T23:28:01.011Z,-3.60
2018-12-26T23:30:29.427Z,-3.70
2018-12-26T23:32:57.882Z,-3.80
2018-12-26T23:35:26.305Z,-3.80
2018-12-26T23:37:54.746Z,-3.80
2018-12-26T23:40:23.185Z,-3.70
2018-12-26T23:42:51.629Z,-3.70
2018-12-26T23:45:20.078Z,-3.70
2018-12-26T23:47:48.533Z,-3.60
2018-12-26T23:50:16.964Z,-3.60
2018-12-26T23:52:45.428Z,-3.70
2018-12-26T23:55:13.963Z,-3.60
2018-12-26T23:57:42.406Z,-3.70
